Time;durP1;ratioP1;P1;durP2;ratioP2;P2;SDS_P1;SDS_P2;PMS_P1;PMS_P2;Temp;Humidity;BMP_temperature;BMP_pressure;BME280_temperature;BME280_humidity;BME280_pressure;Samples;Min_cycle;Max_cycle;Signal;HPM_P1;HPM_P2
2023/03/08 00:01:44;;;;;;;3.00;1.70;;;;;;;1.81;81.13;98498.82;102928;274;96395;-59
2023/03/08 00:04:19;;;;;;;2.20;1.70;;;;;;;1.74;81.29;98504.69;102866;275;118897;-57
2023/03/08 00:06:54;;;;;;;2.80;1.90;;;;;;;1.76;81.33;98502.67;102945;275;106006;-54
2023/03/08 00:09:31;;;;;;;2.60;2.00;;;;;;;1.73;81.45;98499.48;102883;275;114889;-55
2023/03/08 00:12:10;;;;;;;2.80;1.80;;;;;;;1.72;81.66;98499.59;102891;275;96092;-59
2023/03/08 00:14:46;;;;;;;3.30;2.40;;;;;;;1.77;81.81;98486.44;102886;275;97520;-57
2023/03/08 00:17:28;;;;;;;3.90;2.00;;;;;;;1.79;81.59;98486.55;102885;275;116899;-60
2023/03/08 00:20:04;;;;;;;4.30;2.40;;;;;;;1.79;81.70;98488.84;102871;275;104710;-59
2023/03/08 00:22:43;;;;;;;4.30;2.80;;;;;;;1.75;81.54;98491.27;102904;275;114687;-55
2023/03/08 00:25:22;;;;;;;4.30;2.40;;;;;;;1.68;81.67;98490.30;102886;275;93482;-54
2023/03/08 00:28:00;;;;;;;3.50;2.40;;;;;;;1.62;81.79;98490.90;102884;275;97922;-58
2023/03/08 00:30:34;;;;;;;2.90;2.00;;;;;;;1.60;82.05;98492.73;102899;271;119347;-60
2023/03/08 00:33:11;;;;;;;3.20;2.20;;;;;;;1.63;82.03;98492.75;102935;275;104335;-60
2023/03/08 00:35:54;;;;;;;4.50;2.40;;;;;;;1.63;82.12;98493.37;102888;275;114974;-57
2023/03/08 00:38:39;;;;;;;4.70;2.60;;;;;;;1.64;82.08;98491.47;102897;275;96184;-57
2023/03/08 00:41:20;;;;;;;6.50;3.00;;;;;;;1.64;82.18;98491.34;102902;275;96676;-57
2023/03/08 00:43:56;;;;;;;3.30;2.20;;;;;;;1.61;82.24;98488.74;102896;275;118981;-59
2023/03/08 00:46:35;;;;;;;5.20;2.90;;;;;;;1.59;82.53;98485.59;102920;275;104399;-59
2023/03/08 00:49:09;;;;;;;3.80;2.70;;;;;;;1.62;82.54;98485.07;102905;275;113826;-60
2023/03/08 00:51:49;;;;;;;4.50;2.90;;;;;;;1.59;82.52;98490.96;102899;275;95704;-54
2023/03/08 00:54:34;;;;;;;3.80;2.30;;;;;;;1.55;82.42;98490.48;102900;275;97494;-53
2023/03/08 00:57:12;;;;;;;4.80;2.30;;;;;;;1.55;82.65;98488.33;102894;275;118740;-54
2023/03/08 00:59:49;;;;;;;3.50;2.50;;;;;;;1.54;82.57;98490.60;102895;275;104103;-55
2023/03/08 01:02:28;;;;;;;3.50;2.70;;;;;;;1.50;82.65;98481.64;102869;274;113590;-53
2023/03/08 01:05:07;;;;;;;4.30;3.10;;;;;;;1.47;82.56;98482.91;102882;275;95667;-52
2023/03/08 01:07:43;;;;;;;4.10;2.40;;;;;;;1.46;82.64;98480.91;102960;275;98254;-54
2023/03/08 01:10:20;;;;;;;6.10;2.50;;;;;;;1.42;82.66;98477.08;102900;275;118043;-54
2023/03/08 01:12:55;;;;;;;3.20;2.40;;;;;;;1.42;82.71;98483.14;102912;275;104033;-56
2023/03/08 01:15:36;;;;;;;4.30;2.70;;;;;;;1.34;82.99;98482.10;102738;275;113543;-57
2023/03/08 01:18:14;;;;;;;3.90;2.50;;;;;;;1.39;83.05;98477.88;102832;275;94055;-59
2023/03/08 01:21:01;;;;;;;3.70;2.10;;;;;;;1.39;82.96;98471.27;102765;275;98331;-54
2023/03/08 01:23:44;;;;;;;4.60;2.30;;;;;;;1.37;82.96;98469.10;102866;275;118778;-55
2023/03/08 01:26:22;;;;;;;4.70;2.60;;;;;;;1.40;83.05;98466.70;102866;275;105547;-59
2023/03/08 01:28:59;;;;;;;3.30;2.20;;;;;;;1.40;83.03;98459.41;102923;275;114562;-58
2023/03/08 01:31:37;;;;;;;3.80;2.30;;;;;;;1.38;83.07;98456.10;102886;275;95971;-58
2023/03/08 01:34:13;;;;;;;4.20;2.90;;;;;;;1.34;83.15;98452.05;102926;275;98338;-58
2023/03/08 01:36:54;;;;;;;3.40;1.80;;;;;;;1.31;83.11;98455.17;102910;275;117664;-59
2023/03/08 01:39:32;;;;;;;3.30;1.80;;;;;;;1.22;83.10;98457.30;102872;275;104699;-59
2023/03/08 01:42:08;;;;;;;3.60;1.80;;;;;;;1.15;83.17;98461.34;102906;275;113125;-57
2023/03/08 01:45:06;;;;;;;4.10;2.10;;;;;;;1.07;83.20;98463.11;102861;275;95438;-58
2023/03/08 01:47:56;;;;;;;4.20;1.80;;;;;;;0.96;83.34;98466.19;102856;275;97138;-58
2023/03/08 01:50:33;;;;;;;4.70;2.20;;;;;;;0.92;83.67;98465.61;102881;275;117899;-53
2023/03/08 01:53:09;;;;;;;;;;;;;;;0.90;83.52;98468.89;102897;275;105396;-53
2023/03/08 01:55:53;;;;;;;2.90;1.80;;;;;;;0.91;83.47;98469.07;102886;275;113675;-54
2023/03/08 01:58:32;;;;;;;3.20;1.90;;;;;;;0.93;83.64;98468.83;102853;275;96027;-55
2023/03/08 02:01:06;;;;;;;3.90;2.00;;;;;;;0.96;83.60;98471.17;102884;275;98385;-55
2023/03/08 02:03:44;;;;;;;3.80;1.60;;;;;;;0.94;83.72;98475.08;102883;275;119923;-54
2023/03/08 02:06:25;;;;;;;2.10;1.60;;;;;;;0.88;83.79;98479.20;102892;275;103825;-58
2023/03/08 02:09:06;;;;;;;2.30;1.60;;;;;;;0.94;83.87;98476.34;102846;275;112998;-57
2023/03/08 02:11:48;;;;;;;3.10;1.40;;;;;;;0.99;84.08;98476.64;102867;275;94733;-55
2023/03/08 02:14:28;;;;;;;4.40;1.70;;;;;;;0.99;84.03;98476.67;102942;275;95475;-55
2023/03/08 02:17:05;;;;;;;2.70;1.60;;;;;;;0.99;83.97;98476.14;102917;275;119395;-57
2023/03/08 02:19:54;;;;;;;3.60;1.70;;;;;;;0.98;83.82;98478.45;102909;275;105563;-57
2023/03/08 02:22:35;;;;;;;4.40;1.60;;;;;;;0.92;83.94;98477.52;102885;275;114257;-53
2023/03/08 02:25:20;;;;;;;1.90;1.20;;;;;;;0.92;83.76;98480.30;102876;275;94727;-54
2023/03/08 02:28:00;;;;;;;3.50;2.00;;;;;;;0.85;83.94;98482.16;102934;275;97387;-54
2023/03/08 02:30:40;;;;;;;4.20;1.20;;;;;;;0.88;84.03;98489.70;102898;275;119367;-51
2023/03/08 02:33:17;;;;;;;2.10;1.30;;;;;;;0.88;84.07;98491.99;102889;275;106019;-54
2023/03/08 02:36:03;;;;;;;2.80;1.40;;;;;;;0.89;83.95;98493.44;102889;275;113176;-55
2023/03/08 02:38:40;;;;;;;3.10;1.50;;;;;;;0.89;83.99;98492.67;102863;274;92352;-55
2023/03/08 02:41:15;;;;;;;3.30;1.40;;;;;;;0.90;83.92;98494.77;102861;275;96316;-53
2023/03/08 02:43:53;;;;;;;3.20;1.50;;;;;;;0.86;83.96;98495.48;102893;275;119143;-53
2023/03/08 02:46:36;;;;;;;2.70;1.50;;;;;;;0.84;83.98;98500.55;102878;275;104792;-59
2023/03/08 02:49:16;;;;;;;3.90;1.50;;;;;;;0.83;84.10;98495.73;102851;275;114928;-59
2023/03/08 02:52:06;;;;;;;3.70;1.60;;;;;;;0.79;84.15;98504.86;102889;275;96190;-53
2023/03/08 02:54:44;;;;;;;2.60;1.40;;;;;;;0.82;84.19;98505.00;102896;267;96962;-54
2023/03/08 02:57:23;;;;;;;4.70;1.70;;;;;;;0.84;84.16;98511.41;102913;275;118144;-58
2023/03/08 02:59:56;;;;;;;3.50;1.30;;;;;;;0.85;84.13;98514.02;102876;275;104608;-58
2023/03/08 03:02:34;;;;;;;5.40;1.40;;;;;;;0.88;84.40;98518.36;102895;275;113911;-53
2023/03/08 03:05:11;;;;;;;4.50;1.30;;;;;;;0.92;84.43;98515.45;102894;275;96214;-54
2023/03/08 03:07:45;;;;;;;2.80;1.50;;;;;;;0.92;84.42;98519.54;102934;275;95630;-54
2023/03/08 03:10:31;;;;;;;3.60;1.40;;;;;;;0.98;84.51;98520.73;102901;275;120916;-56
2023/03/08 03:13:13;;;;;;;2.90;1.40;;;;;;;1.02;84.66;98522.73;102865;275;105261;-59
2023/03/08 03:15:56;;;;;;;3.30;2.00;;;;;;;0.99;84.62;98520.95;102914;274;114698;-54
2023/03/08 03:18:36;;;;;;;2.90;1.70;;;;;;;0.95;84.67;98522.52;102877;275;93340;-53
2023/03/08 03:21:13;;;;;;;3.50;1.60;;;;;;;0.94;84.55;98527.77;102845;274;97993;-59
2023/03/08 03:23:49;;;;;;;3.30;1.90;;;;;;;0.93;84.54;98534.80;102875;275;119103;-58
2023/03/08 03:26:25;;;;;;;2.60;2.10;;;;;;;0.91;84.51;98539.23;102900;275;105671;-58
2023/03/08 03:29:01;;;;;;;3.90;2.10;;;;;;;0.90;84.62;98536.20;102866;275;114096;-57
2023/03/08 03:31:35;;;;;;;4.40;2.50;;;;;;;0.89;84.74;98534.02;102860;275;95994;-57
2023/03/08 03:34:17;;;;;;;3.80;2.40;;;;;;;0.87;84.75;98539.77;102891;275;96709;-58
2023/03/08 03:36:53;;;;;;;3.40;2.40;;;;;;;0.86;84.70;98547.84;102858;275;119728;-53
2023/03/08 03:39:37;;;;;;;3.90;2.40;;;;;;;0.86;84.89;98547.14;102895;275;105269;-51
2023/03/08 03:42:21;;;;;;;5.10;2.40;;;;;;;0.87;84.82;98545.82;102880;275;114794;-56
2023/03/08 03:45:02;;;;;;;4.90;2.20;;;;;;;0.89;85.00;98548.70;102874;275;96049;-55
2023/03/08 03:47:44;;;;;;;6.20;2.70;;;;;;;0.93;85.00;98555.15;102877;275;96524;-58
2023/03/08 03:50:19;;;;;;;5.80;2.90;;;;;;;0.97;85.05;98556.80;102869;275;118184;-58
2023/03/08 03:52:55;;;;;;;4.30;2.80;;;;;;;0.98;85.13;98559.34;102879;275;105108;-58
2023/03/08 03:55:32;;;;;;;5.40;2.60;;;;;;;0.96;85.14;98562.58;102903;275;114685;-54
2023/03/08 03:58:09;;;;;;;6.10;3.20;;;;;;;1.00;85.11;98562.50;102859;275;95068;-54
2023/03/08 04:00:49;;;;;;;5.40;3.20;;;;;;;1.04;85.11;98566.70;102903;275;98005;-55
2023/03/08 04:03:32;;;;;;;7.00;3.50;;;;;;;1.06;85.11;98574.19;102879;275;118830;-55
2023/03/08 04:06:18;;;;;;;5.90;3.50;;;;;;;1.05;85.12;98574.52;102875;275;105558;-58
2023/03/08 04:08:56;;;;;;;5.80;3.60;;;;;;;1.07;85.18;98578.19;102884;275;115050;-57
2023/03/08 04:11:36;;;;;;;7.00;4.20;;;;;;;1.06;85.12;98574.73;102864;275;96011;-54
2023/03/08 04:14:16;;;;;;;6.00;4.40;;;;;;;1.08;85.20;98572.79;102909;275;96515;-52
2023/03/08 04:16:54;;;;;;;7.40;5.10;;;;;;;1.10;85.38;98570.02;102912;275;119920;-55
2023/03/08 04:19:41;;;;;;;7.30;5.80;;;;;;;1.09;85.18;98570.82;102857;275;106065;-53
2023/03/08 04:22:28;;;;;;;8.00;5.40;;;;;;;1.06;85.25;98564.86;102892;275;115047;-56
2023/03/08 04:25:05;;;;;;;8.50;5.60;;;;;;;1.05;85.33;98563.86;102854;275;95545;-57
2023/03/08 04:27:40;;;;;;;9.40;5.70;;;;;;;1.00;85.42;98567.12;102908;275;98687;-58
2023/03/08 04:30:16;;;;;;;8.30;6.00;;;;;;;0.98;85.40;98564.50;102881;275;120180;-58
2023/03/08 04:32:54;;;;;;;7.40;5.90;;;;;;;0.93;85.25;98568.80;102848;275;105511;-54
2023/03/08 04:35:31;;;;;;;9.30;6.40;;;;;;;0.89;85.47;98578.25;102908;275;115225;-54
2023/03/08 04:38:04;;;;;;;;;;;;;;;0.86;85.60;98579.89;102911;275;94419;-53
2023/03/08 04:43:32;;;;;;;10.80;8.40;;;;;;;0.90;85.69;98591.61;102865;275;118338;-58
2023/03/08 04:46:10;;;;;;;9.20;6.80;;;;;;;0.96;85.81;98601.59;102879;275;105300;-53
2023/03/08 04:48:55;;;;;;;9.20;6.80;;;;;;;0.99;85.87;98603.77;102853;275;114623;-54
2023/03/08 04:51:34;;;;;;;10.50;7.40;;;;;;;1.04;85.81;98604.58;102900;268;96109;-53
2023/03/08 04:54:13;;;;;;;11.20;7.50;;;;;;;1.07;85.86;98606.20;102854;275;98800;-53
2023/03/08 04:56:53;;;;;;;10.20;8.10;;;;;;;1.10;85.90;98606.48;102909;275;120510;-57
2023/03/08 04:59:36;;;;;;;11.20;7.60;;;;;;;1.11;85.90;98608.40;102872;275;105086;-57
2023/03/08 05:02:11;;;;;;;10.90;7.60;;;;;;;1.09;85.81;98613.73;102865;275;115031;-55
2023/03/08 05:04:48;;;;;;;9.60;7.30;;;;;;;1.08;85.86;98615.05;102885;275;93336;-52
2023/03/08 05:07:27;;;;;;;10.80;8.40;;;;;;;1.08;85.86;98620.08;102919;275;96420;-54
2023/03/08 05:10:07;;;;;;;10.60;8.00;;;;;;;1.06;85.80;98618.52;102904;275;118833;-54
2023/03/08 05:12:49;;;;;;;11.40;8.50;;;;;;;1.06;85.80;98618.73;102850;275;105884;-52
2023/03/08 05:15:31;;;;;;;11.30;8.90;;;;;;;1.04;85.78;98621.98;102873;275;113364;-56
2023/03/08 05:18:09;;;;;;;10.60;8.70;;;;;;;1.03;85.69;98628.10;102882;275;95424;-58
2023/03/08 05:20:55;;;;;;;11.00;8.70;;;;;;;1.00;85.76;98633.17;102864;275;96944;-59
2023/03/08 05:23:30;;;;;;;10.70;8.60;;;;;;;0.98;85.74;98634.64;102860;275;120788;-58
2023/03/08 05:26:07;;;;;;;10.50;8.30;;;;;;;0.97;85.67;98638.47;102869;275;106353;-58
2023/03/08 05:28:44;;;;;;;11.80;8.60;;;;;;;0.90;85.75;98636.49;102859;275;114959;-58
2023/03/08 05:31:23;;;;;;;12.90;9.80;;;;;;;0.88;85.76;98640.08;102544;275;485580;-58
2023/03/08 05:33:58;;;;;;;11.60;9.00;;;;;;;0.91;85.70;98638.52;102860;275;97891;-59
2023/03/08 05:36:43;;;;;;;14.20;9.20;;;;;;;0.84;85.69;98640.55;102900;275;119507;-59
2023/03/08 05:39:22;;;;;;;13.30;10.10;;;;;;;0.83;85.62;98657.81;102849;275;105189;-58
2023/03/08 05:42:06;;;;;;;11.00;8.50;;;;;;;0.84;85.60;98659.85;102866;275;114116;-52
2023/03/08 05:44:43;;;;;;;13.20;9.10;;;;;;;0.83;85.52;98661.21;102867;275;96009;-53
2023/03/08 05:47:25;;;;;;;12.80;9.80;;;;;;;0.86;85.56;98665.89;102899;275;97561;-57
2023/03/08 05:50:04;;;;;;;11.50;8.70;;;;;;;0.89;85.58;98675.27;102861;275;119237;-57
2023/03/08 05:52:41;;;;;;;10.80;8.60;;;;;;;0.95;85.53;98675.66;102895;275;105734;-54
2023/03/08 05:55:21;;;;;;;11.10;9.00;;;;;;;0.97;85.57;98673.23;102858;275;114989;-53
2023/03/08 05:58:02;;;;;;;11.80;8.20;;;;;;;1.06;85.59;98678.29;102871;275;94054;-53
2023/03/08 06:00:43;;;;;;;11.90;8.70;;;;;;;1.10;85.46;98691.05;102915;275;97555;-53
2023/03/08 06:03:25;;;;;;;11.60;8.90;;;;;;;1.11;85.37;98692.23;102873;275;119075;-53
2023/03/08 06:06:03;;;;;;;14.10;9.00;;;;;;;1.13;85.26;98698.05;102892;275;105456;-56
